Time;durP1;ratioP1;P1;durP2;ratioP2;P2;SDS_P1;SDS_P2;PMS_P1;PMS_P2;Temp;Humidity;BMP_temperature;BMP_pressure;BME280_temperature;BME280_humidity;BME280_pressure;Samples;Min_cycle;Max_cycle;Signal;HPM_P1;HPM_P2
2024/01/05 00:00:08;;;;;;;5.88;3.83;;;;;;;;;;5033348;28;20284;-71
2024/01/05 00:02:34;;;;;;;7.32;4.85;;;;;;;;;;5031121;28;20192;-69
2024/01/05 00:05:00;;;;;;;8.25;4.22;;;;;;;;;;5031462;28;20961;-69
2024/01/05 00:07:26;;;;;;;10.93;4.65;;;;;;;;;;5046875;28;20880;-70
2024/01/05 00:09:52;;;;;;;9.13;5.03;;;;;;;;;;5032294;28;20268;-70
2024/01/05 00:12:19;;;;;;;6.90;4.90;;;;;;;;;;5014381;28;20737;-70
2024/01/05 00:14:45;;;;;;;12.98;5.07;;;;;;;;;;5033443;28;20041;-71
2024/01/05 00:17:11;;;;;;;11.30;5.88;;;;;;;;;;5032366;28;20055;-71
2024/01/05 00:19:37;;;;;;;7.78;4.78;;;;;;;;;;5031945;28;20202;-70
2024/01/05 00:22:03;;;;;;;8.50;5.30;;;;;;;;;;5029768;28;20102;-70
2024/01/05 00:24:29;;;;;;;10.30;5.25;;;;;;;;;;5030061;28;20041;-69
2024/01/05 00:26:55;;;;;;;8.18;6.47;;;;;;;;;;5034423;28;20036;-69
2024/01/05 00:29:21;;;;;;;6.85;5.15;;;;;;;;;;5036156;28;20335;-70
2024/01/05 00:31:48;;;;;;;8.50;5.97;;;;;;;;;;5035968;28;20087;-70
2024/01/05 00:34:14;;;;;;;8.20;5.45;;;;;;;;;;5035987;28;20616;-70
2024/01/05 00:36:40;;;;;;;14.85;6.40;;;;;;;;;;5036203;28;20203;-70
2024/01/05 00:39:06;;;;;;;9.82;6.05;;;;;;;;;;5034553;28;20044;-70
2024/01/05 00:41:32;;;;;;;8.68;5.50;;;;;;;;;;5037092;28;20044;-70
2024/01/05 00:43:59;;;;;;;10.25;6.07;;;;;;;;;;5035287;28;20239;-70
2024/01/05 00:46:25;;;;;;;8.82;5.55;;;;;;;;;;5037153;28;20079;-70
2024/01/05 00:48:51;;;;;;;11.02;6.00;;;;;;;;;;5033475;28;20048;-70
2024/01/05 00:51:17;;;;;;;14.10;6.72;;;;;;;;;;5031264;28;20476;-70
2024/01/05 00:53:43;;;;;;;7.70;6.50;;;;;;;;;;5033823;28;20817;-70
2024/01/05 00:56:09;;;;;;;9.52;6.45;;;;;;;;;;5034412;28;20251;-70
2024/01/05 00:58:36;;;;;;;8.77;6.15;;;;;;;;;;5035705;28;20049;-70
2024/01/05 01:01:02;;;;;;;14.30;6.72;;;;;;;;;;5035605;28;20048;-70
2024/01/05 01:03:28;;;;;;;11.07;6.65;;;;;;;;;;5035235;28;20117;-70
2024/01/05 01:05:54;;;;;;;10.88;6.43;;;;;;;;;;5033747;28;20074;-70
2024/01/05 01:08:20;;;;;;;10.48;5.72;;;;;;;;;;5033492;28;20074;-69
2024/01/05 01:10:47;;;;;;;9.77;7.03;;;;;;;;;;5034947;28;20142;-70
2024/01/05 01:13:13;;;;;;;9.18;6.88;;;;;;;;;;5033929;28;20139;-70
2024/01/05 01:15:39;;;;;;;11.02;7.30;;;;;;;;;;5036104;28;20597;-69
2024/01/05 01:18:05;;;;;;;9.27;6.45;;;;;;;;;;5036037;28;20041;-70
2024/01/05 01:20:31;;;;;;;11.80;7.93;;;;;;;;;;5033260;28;20242;-70
2024/01/05 01:22:59;;;;;;;9.48;6.80;;;;;;;;;;5033273;28;21225;-70
2024/01/05 01:25:25;;;;;;;9.18;6.57;;;;;;;;;;5018728;28;20079;-70
2024/01/05 01:27:51;;;;;;;10.02;6.70;;;;;;;;;;5035119;28;20118;-70
2024/01/05 01:30:17;;;;;;;11.60;7.53;;;;;;;;;;5036004;28;20102;-70
2024/01/05 01:32:43;;;;;;;11.57;7.03;;;;;;;;;;5035009;28;20040;-71
2024/01/05 01:35:09;;;;;;;8.98;6.55;;;;;;;;;;5034432;28;20052;-70
2024/01/05 01:37:36;;;;;;;12.23;6.43;;;;;;;;;;5031964;28;20085;-70
2024/01/05 01:40:04;;;;;;;13.40;7.68;;;;;;;;;;5033304;28;20131;-70
2024/01/05 01:42:31;;;;;;;10.60;6.80;;;;;;;;;;5035049;28;20198;-70
2024/01/05 01:44:57;;;;;;;11.75;7.10;;;;;;;;;;5034965;28;20041;-70
2024/01/05 01:47:24;;;;;;;16.52;8.00;;;;;;;;;;5033089;28;20286;-70
2024/01/05 01:49:51;;;;;;;10.20;6.93;;;;;;;;;;5032422;28;20144;-70
2024/01/05 01:52:17;;;;;;;14.07;7.20;;;;;;;;;;5032033;28;20718;-70
2024/01/05 01:54:43;;;;;;;9.05;6.95;;;;;;;;;;5033168;28;20170;-70
2024/01/05 01:57:09;;;;;;;10.68;6.93;;;;;;;;;;5049168;28;20284;-70
2024/01/05 01:59:36;;;;;;;10.57;7.30;;;;;;;;;;5035827;28;20057;-71
2024/01/05 02:02:02;;;;;;;12.65;7.40;;;;;;;;;;5035200;28;20036;-70
2024/01/05 02:04:29;;;;;;;11.90;6.93;;;;;;;;;;5034205;28;20040;-70
2024/01/05 02:06:55;;;;;;;11.35;7.03;;;;;;;;;;5051236;28;20080;-71
2024/01/05 02:09:21;;;;;;;13.90;7.43;;;;;;;;;;5031459;28;20072;-69
2024/01/05 02:11:48;;;;;;;11.60;6.80;;;;;;;;;;5034669;28;20547;-70
2024/01/05 02:14:14;;;;;;;10.30;7.07;;;;;;;;;;5032947;28;20263;-70
2024/01/05 02:16:43;;;;;;;11.70;8.43;;;;;;;;;;5034129;28;20048;-70
2024/01/05 02:19:09;;;;;;;11.52;7.78;;;;;;;;;;5031851;28;20190;-70
2024/01/05 02:21:38;;;;;;;9.32;6.85;;;;;;;;;;5034855;28;20033;-71
2024/01/05 02:24:04;;;;;;;11.07;7.22;;;;;;;;;;5033117;28;20105;-70
2024/01/05 02:26:31;;;;;;;11.02;7.65;;;;;;;;;;5033083;28;20278;-70
2024/01/05 02:28:57;;;;;;;13.32;8.05;;;;;;;;;;5032242;28;20704;-70
2024/01/05 02:31:23;;;;;;;11.63;7.88;;;;;;;;;;5034566;28;20041;-70
2024/01/05 02:33:49;;;;;;;12.77;8.30;;;;;;;;;;5049132;28;20040;-69
2024/01/05 02:36:16;;;;;;;12.32;8.63;;;;;;;;;;5034193;28;20244;-70
2024/01/05 02:38:42;;;;;;;9.80;6.97;;;;;;;;;;5033497;28;20144;-70
2024/01/05 02:41:10;;;;;;;10.02;7.07;;;;;;;;;;5031710;28;20154;-70
2024/01/05 02:43:36;;;;;;;11.30;7.13;;;;;;;;;;5033200;28;20048;-69
2024/01/05 02:46:02;;;;;;;11.68;7.72;;;;;;;;;;5031282;28;20178;-69
2024/01/05 02:48:29;;;;;;;11.80;7.63;;;;;;;;;;5032227;28;20048;-68
2024/01/05 02:50:55;;;;;;;11.30;7.03;;;;;;;;;;5031793;28;20053;-69
2024/01/05 02:53:21;;;;;;;9.90;7.68;;;;;;;;;;5030937;28;20067;-68
2024/01/05 02:55:47;;;;;;;10.63;7.00;;;;;;;;;;5033622;28;20295;-69
2024/01/05 02:58:13;;;;;;;10.27;7.25;;;;;;;;;;5033090;28;20512;-69
2024/01/05 03:00:39;;;;;;;11.32;8.30;;;;;;;;;;5034031;28;20100;-69
2024/01/05 03:03:05;;;;;;;14.18;7.40;;;;;;;;;;5031448;28;20109;-69
2024/01/05 03:05:31;;;;;;;10.52;7.15;;;;;;;;;;5032014;28;20228;-69
2024/01/05 03:07:58;;;;;;;11.55;7.28;;;;;;;;;;5031299;28;20622;-70
2024/01/05 03:10:24;;;;;;;10.57;7.30;;;;;;;;;;5034129;28;20218;-70
2024/01/05 03:12:51;;;;;;;12.63;8.02;;;;;;;;;;5031743;28;20575;-70
2024/01/05 03:15:18;;;;;;;11.50;7.63;;;;;;;;;;5032332;28;20036;-69
2024/01/05 03:17:44;;;;;;;16.60;8.38;;;;;;;;;;5048435;28;20226;-69
2024/01/05 03:20:11;;;;;;;10.65;6.65;;;;;;;;;;5033966;28;20115;-69
2024/01/05 03:22:37;;;;;;;9.63;6.75;;;;;;;;;;5030697;28;20874;-70
2024/01/05 03:25:03;;;;;;;12.45;7.25;;;;;;;;;;5047182;28;20052;-69
2024/01/05 03:27:29;;;;;;;10.07;6.72;;;;;;;;;;5030813;28;20128;-69
2024/01/05 03:29:56;;;;;;;11.60;7.32;;;;;;;;;;5031048;28;20181;-70
2024/01/05 03:32:23;;;;;;;10.82;6.93;;;;;;;;;;5046334;28;20114;-70
2024/01/05 03:34:49;;;;;;;12.18;7.13;;;;;;;;;;5032997;28;20542;-70
2024/01/05 03:37:15;;;;;;;10.18;6.88;;;;;;;;;;5031360;28;20612;-70
2024/01/05 03:39:41;;;;;;;10.93;6.88;;;;;;;;;;5031489;28;20041;-70
2024/01/05 03:42:07;;;;;;;10.73;6.82;;;;;;;;;;5030394;28;20047;-69
2024/01/05 03:44:34;;;;;;;12.35;7.45;;;;;;;;;;5032403;28;20102;-69
2024/01/05 03:47:00;;;;;;;12.27;6.63;;;;;;;;;;5030936;28;20298;-70
2024/01/05 03:49:26;;;;;;;12.32;6.82;;;;;;;;;;5015312;28;20070;-70
2024/01/05 03:51:53;;;;;;;10.95;7.00;;;;;;;;;;5029623;28;20552;-69
2024/01/05 03:54:19;;;;;;;12.50;8.57;;;;;;;;;;5013759;28;20112;-70
2024/01/05 03:56:46;;;;;;;9.30;6.47;;;;;;;;;;5031703;28;20114;-69
2024/01/05 03:59:13;;;;;;;13.60;8.23;;;;;;;;;;5032142;28;20239;-70
2024/01/05 04:01:43;;;;;;;8.95;6.30;;;;;;;;;;5031253;28;20708;-70
2024/01/05 04:04:09;;;;;;;8.98;6.82;;;;;;;;;;5013614;28;20597;-70
2024/01/05 04:06:35;;;;;;;12.10;6.28;;;;;;;;;;5032327;28;20096;-70
2024/01/05 04:09:03;;;;;;;10.25;6.22;;;;;;;;;;5012713;28;20048;-70
2024/01/05 04:11:30;;;;;;;10.00;7.18;;;;;;;;;;5030666;28;20071;-70
2024/01/05 04:13:56;;;;;;;12.40;6.82;;;;;;;;;;5032502;28;20461;-69
2024/01/05 04:16:22;;;;;;;9.52;6.03;;;;;;;;;;5031676;28;20045;-70
2024/01/05 04:18:48;;;;;;;11.65;6.72;;;;;;;;;;5030654;28;20180;-70
2024/01/05 04:21:15;;;;;;;9.90;6.07;;;;;;;;;;5046819;28;20175;-69
2024/01/05 04:23:41;;;;;;;8.52;6.00;;;;;;;;;;5031629;28;20296;-69
2024/01/05 04:26:07;;;;;;;7.82;5.32;;;;;;;;;;5032318;28;20386;-69
2024/01/05 04:28:33;;;;;;;8.57;6.43;;;;;;;;;;5048177;28;20622;-69
2024/01/05 04:30:59;;;;;;;10.40;6.45;;;;;;;;;;5032075;28;20139;-69
2024/01/05 04:33:26;;;;;;;9.07;5.70;;;;;;;;;;5032462;28;20589;-69
2024/01/05 04:35:52;;;;;;;9.20;5.90;;;;;;;;;;5030887;28;20292;-69
2024/01/05 04:38:18;;;;;;;11.90;6.13;;;;;;;;;;5030748;28;20241;-69
2024/01/05 04:40:44;;;;;;;9.00;6.40;;;;;;;;;;5047411;28;20237;-70
2024/01/05 04:43:10;;;;;;;9.07;6.07;;;;;;;;;;5031612;28;20209;-70
2024/01/05 04:45:36;;;;;;;7.50;4.85;;;;;;;;;;5032207;28;20036;-70
2024/01/05 04:48:04;;;;;;;8.90;5.85;;;;;;;;;;5032490;28;20052;-69
2024/01/05 04:50:30;;;;;;;8.30;5.75;;;;;;;;;;5031747;28;20275;-72
2024/01/05 04:52:56;;;;;;;10.98;6.47;;;;;;;;;;5029197;28;20133;-70
2024/01/05 04:55:22;;;;;;;10.70;5.97;;;;;;;;;;5032887;28;20044;-70
2024/01/05 04:57:48;;;;;;;8.35;5.13;;;;;;;;;;5031686;28;20611;-69
2024/01/05 05:00:14;;;;;;;10.05;5.70;;;;;;;;;;5030973;28;20165;-69
2024/01/05 05:02:41;;;;;;;7.40;5.38;;;;;;;;;;5047734;28;20053;-70
2024/01/05 05:05:08;;;;;;;8.15;5.82;;;;;;;;;;5031251;28;20072;-70
2024/01/05 05:07:34;;;;;;;8.48;6.28;;;;;;;;;;5029998;28;20284;-70
2024/01/05 05:10:00;;;;;;;9.13;5.78;;;;;;;;;;5044940;28;20080;-70
2024/01/05 05:12:26;;;;;;;8.70;5.78;;;;;;;;;;5033941;28;20091;-70
2024/01/05 05:14:53;;;;;;;6.05;4.40;;;;;;;;;;5051058;28;20155;-70
2024/01/05 05:17:19;;;;;;;8.32;5.93;;;;;;;;;;5034658;28;20261;-70
2024/01/05 05:19:46;;;;;;;8.88;5.45;;;;;;;;;;5035224;28;20246;-70
2024/01/05 05:22:12;;;;;;;8.25;5.07;;;;;;;;;;5033501;28;20290;-70
2024/01/05 05:24:38;;;;;;;8.43;5.28;;;;;;;;;;5033250;28;20040;-70
2024/01/05 05:27:04;;;;;;;8.20;5.53;;;;;;;;;;5034396;28;20292;-70
2024/01/05 05:29:30;;;;;;;8.38;4.38;;;;;;;;;;5035537;28;20602;-70
2024/01/05 05:31:57;;;;;;;6.95;4.85;;;;;;;;;;5017394;28;20804;-70
2024/01/05 05:34:23;;;;;;;7.95;5.32;;;;;;;;;;5034829;28;20048;-70
2024/01/05 05:36:49;;;;;;;8.32;5.63;;;;;;;;;;5032753;28;20585;-69
2024/01/05 05:39:15;;;;;;;8.32;4.97;;;;;;;;;;5016123;28;20316;-70
2024/01/05 05:41:41;;;;;;;7.20;5.22;;;;;;;;;;5034854;28;20129;-69
2024/01/05 05:44:07;;;;;;;8.85;5.50;;;;;;;;;;5033156;28;20116;-70
2024/01/05 05:46:33;;;;;;;8.63;5.20;;;;;;;;;;5031376;28;20390;-70
2024/01/05 05:48:59;;;;;;;9.27;5.35;;;;;;;;;;5032352;28;20049;-70
2024/01/05 05:51:26;;;;;;;8.85;5.72;;;;;;;;;;5049362;28;20075;-70
2024/01/05 05:53:53;;;;;;;7.25;4.93;;;;;;;;;;5034132;28;20265;-70
2024/01/05 05:56:19;;;;;;;9.43;6.03;;;;;;;;;;5034322;28;20048;-70
2024/01/05 05:58:45;;;;;;;8.77;5.45;;;;;;;;;;5034138;28;20067;-71
2024/01/05 06:01:13;;;;;;;9.48;5.45;;;;;;;;;;5034300;28;20195;-70
2024/01/05 06:03:39;;;;;;;8.55;5.65;;;;;;;;;;5034551;28;20060;-71
2024/01/05 06:06:15;;;;;;;7.90;4.60;;;;;;;;;;5016366;28;20570;-69
2024/01/05 06:08:41;;;;;;;8.18;4.85;;;;;;;;;;5033844;28;20136;-69
2024/01/05 06:11:08;;;;;;;8.52;6.00;;;;;;;;;;5035406;28;20044;-70
2024/01/05 06:13:34;;;;;;;8.43;5.15;;;;;;;;;;5016506;28;20638;-69
2024/01/05 06:16:00;;;;;;;7.13;5.10;;;;;;;;;;5034580;28;20593;-70
2024/01/05 06:18:26;;;;;;;9.38;5.40;;;;;;;;;;5032372;28;20041;-70
2024/01/05 06:20:53;;;;;;;7.78;5.57;;;;;;;;;;5033186;28;20404;-70
2024/01/05 06:23:19;;;;;;;8.60;5.72;;;;;;;;;;5032532;28;20362;-70
2024/01/05 06:25:45;;;;;;;10.77;5.60;;;;;;;;;;5035060;28;20064;-69
2024/01/05 06:28:11;;;;;;;8.80;6.15;;;;;;;;;;5033724;28;20123;-70
2024/01/05 06:30:37;;;;;;;7.50;5.18;;;;;;;;;;5032203;28;20397;-70
2024/01/05 06:33:06;;;;;;;8.02;5.25;;;;;;;;;;5013982;28;20041;-70
2024/01/05 06:35:32;;;;;;;8.95;5.88;;;;;;;;;;5031072;28;20442;-69
2024/01/05 06:37:59;;;;;;;8.68;5.05;;;;;;;;;;5033145;28;20636;-70
2024/01/05 06:40:25;;;;;;;8.32;5.63;;;;;;;;;;5033051;28;20504;-69
2024/01/05 06:42:51;;;;;;;7.78;5.05;;;;;;;;;;5031949;28;20516;-70
2024/01/05 06:45:17;;;;;;;8.05;5.82;;;;;;;;;;5031768;28;20731;-69
2024/01/05 06:47:43;;;;;;;9.00;6.30;;;;;;;;;;5033141;28;20567;-70
2024/01/05 06:50:10;;;;;;;9.57;5.40;;;;;;;;;;5049539;28;20044;-70
2024/01/05 06:52:36;;;;;;;7.93;5.97;;;;;;;;;;5014151;28;20155;-71
2024/01/05 06:55:03;;;;;;;7.00;5.57;;;;;;;;;;5013215;28;20340;-69
2024/01/05 06:57:31;;;;;;;9.98;5.47;;;;;;;;;;5028791;28;20044;-69
2024/01/05 06:59:57;;;;;;;8.38;5.55;;;;;;;;;;5030742;28;20104;-68
2024/01/05 07:02:24;;;;;;;7.00;5.40;;;;;;;;;;5030402;28;20220;-69
2024/01/05 07:04:50;;;;;;;9.82;5.93;;;;;;;;;;5031916;28;20045;-69
2024/01/05 07:07:17;;;;;;;7.47;5.50;;;;;;;;;;5014253;28;20413;-69
2024/01/05 07:09:43;;;;;;;9.07;5.80;;;;;;;;;;5029230;28;20510;-69
2024/01/05 07:12:09;;;;;;;8.23;6.28;;;;;;;;;;5016158;28;20074;-69
2024/01/05 07:14:36;;;;;;;8.10;5.70;;;;;;;;;;5031735;28;20048;-70
2024/01/05 07:17:02;;;;;;;12.05;5.75;;;;;;;;;;5015518;28;20048;-68
2024/01/05 07:19:28;;;;;;;7.70;5.85;;;;;;;;;;5001517;28;20175;-71
2024/01/05 07:21:54;;;;;;;9.80;5.47;;;;;;;;;;5034463;28;20279;-70
2024/01/05 07:24:20;;;;;;;10.68;6.38;;;;;;;;;;5032317;28;20041;-69
2024/01/05 07:26:46;;;;;;;7.65;5.93;;;;;;;;;;5034506;28;20291;-70
2024/01/05 07:29:13;;;;;;;8.65;5.85;;;;;;;;;;5034747;28;20179;-70
2024/01/05 07:31:39;;;;;;;7.80;6.18;;;;;;;;;;5035144;28;20094;-73
2024/01/05 07:34:05;;;;;;;9.85;5.78;;;;;;;;;;5032242;28;20041;-68
2024/01/05 07:36:31;;;;;;;7.60;5.32;;;;;;;;;;5032290;28;20040;-68
2024/01/05 07:38:59;;;;;;;9.07;6.30;;;;;;;;;;5027694;28;20524;-69
2024/01/05 07:41:26;;;;;;;10.43;5.70;;;;;;;;;;5029691;28;20594;-69
2024/01/05 07:43:54;;;;;;;8.85;5.82;;;;;;;;;;5033484;28;20276;-69
2024/01/05 07:46:22;;;;;;;8.82;5.88;;;;;;;;;;5032176;28;20033;-70
2024/01/05 07:48:48;;;;;;;10.80;7.13;;;;;;;;;;5031343;28;20044;-69
2024/01/05 07:51:14;;;;;;;10.35;6.05;;;;;;;;;;5031469;28;20056;-69
2024/01/05 07:53:41;;;;;;;8.68;6.43;;;;;;;;;;5031755;28;20448;-69
2024/01/05 07:56:07;;;;;;;8.40;5.68;;;;;;;;;;5029646;28;20288;-69
2024/01/05 07:58:33;;;;;;;8.43;5.72;;;;;;;;;;5030290;28;20232;-69
2024/01/05 08:01:00;;;;;;;9.52;6.10;;;;;;;;;;5034062;28;20076;-69
2024/01/05 08:03:26;;;;;;;7.68;5.50;;;;;;;;;;5031770;28;20063;-70
2024/01/05 08:05:52;;;;;;;9.50;5.90;;;;;;;;;;5033173;28;20312;-69
2024/01/05 08:08:18;;;;;;;9.43;6.70;;;;;;;;;;5033248;28;20112;-69
2024/01/05 08:10:45;;;;;;;9.98;6.40;;;;;;;;;;5033645;28;20130;-71
2024/01/05 08:13:11;;;;;;;10.23;5.32;;;;;;;;;;5034542;28;20132;-69
2024/01/05 08:15:37;;;;;;;9.15;6.10;;;;;;;;;;5031395;28;20249;-69
2024/01/05 08:18:03;;;;;;;8.30;6.20;;;;;;;;;;5033306;28;20443;-69
2024/01/05 08:20:29;;;;;;;10.02;6.07;;;;;;;;;;5033167;28;20104;-70
2024/01/05 08:22:55;;;;;;;10.88;7.13;;;;;;;;;;5032568;28;20093;-70
2024/01/05 08:25:21;;;;;;;8.65;5.70;;;;;;;;;;5031347;28;20139;-70
2024/01/05 08:27:48;;;;;;;7.53;5.63;;;;;;;;;;5048923;28;20374;-70
2024/01/05 08:30:14;;;;;;;7.97;6.20;;;;;;;;;;5033398;28;20041;-70
2024/01/05 08:32:41;;;;;;;8.27;5.63;;;;;;;;;;5032209;28;20512;-70
2024/01/05 08:35:08;;;;;;;11.13;6.43;;;;;;;;;;5031538;28;20642;-70
2024/01/05 08:37:34;;;;;;;9.65;5.95;;;;;;;;;;5030320;28;20543;-70
2024/01/05 08:40:01;;;;;;;9.30;6.40;;;;;;;;;;5030052;28;20122;-70
2024/01/05 08:42:27;;;;;;;7.57;6.22;;;;;;;;;;5013608;28;21307;-70
2024/01/05 08:44:53;;;;;;;13.23;6.07;;;;;;;;;;5031809;28;20075;-70
2024/01/05 08:47:20;;;;;;;9.55;6.22;;;;;;;;;;5035522;28;20193;-70
2024/01/05 08:49:46;;;;;;;7.70;5.80;;;;;;;;;;5036732;28;20105;-70
2024/01/05 08:52:12;;;;;;;14.02;6.25;;;;;;;;;;5017425;28;20048;-70
2024/01/05 08:54:40;;;;;;;10.48;7.20;;;;;;;;;;5037223;28;20323;-70
2024/01/05 08:57:10;;;;;;;9.73;6.13;;;;;;;;;;5036498;28;20033;-70
2024/01/05 08:59:38;;;;;;;11.40;6.68;;;;;;;;;;5029974;28;20439;-70
2024/01/05 09:02:04;;;;;;;10.88;6.65;;;;;;;;;;5034631;28;20037;-70
2024/01/05 09:04:31;;;;;;;11.95;6.55;;;;;;;;;;5033213;28;20967;-70
2024/01/05 09:06:59;;;;;;;9.32;6.13;;;;;;;;;;5033313;28;20178;-71
2024/01/05 09:09:25;;;;;;;8.98;5.82;;;;;;;;;;5030838;28;20222;-69
2024/01/05 09:11:51;;;;;;;8.52;6.40;;;;;;;;;;5036543;28;20041;-69
2024/01/05 09:14:17;;;;;;;10.98;6.40;;;;;;;;;;5034325;28;20199;-70
2024/01/05 09:16:44;;;;;;;8.27;7.25;;;;;;;;;;5034224;28;20037;-70
2024/01/05 09:19:10;;;;;;;7.75;5.90;;;;;;;;;;5033790;28;20238;-70
2024/01/05 09:21:36;;;;;;;9.88;6.72;;;;;;;;;;5034843;28;20211;-70
2024/01/05 09:24:02;;;;;;;9.32;6.80;;;;;;;;;;5035962;28;20508;-70
2024/01/05 09:26:28;;;;;;;8.98;6.50;;;;;;;;;;5035575;28;20542;-70
2024/01/05 09:28:54;;;;;;;10.13;6.68;;;;;;;;;;5033309;28;20045;-69
2024/01/05 09:31:21;;;;;;;13.07;5.95;;;;;;;;;;5018615;28;20138;-70
2024/01/05 09:33:49;;;;;;;9.05;6.60;;;;;;;;;;5036176;28;20045;-70
2024/01/05 09:36:16;;;;;;;8.60;6.10;;;;;;;;;;5033447;28;20067;-70
2024/01/05 09:38:43;;;;;;;9.63;6.13;;;;;;;;;;5033277;28;20296;-70
2024/01/05 09:41:13;;;;;;;8.15;5.45;;;;;;;;;;5035526;28;20128;-70
2024/01/05 09:43:41;;;;;;;10.02;6.13;;;;;;;;;;5034366;28;20939;-69
2024/01/05 09:46:07;;;;;;;7.43;5.75;;;;;;;;;;5051448;28;20040;-70
2024/01/05 09:48:33;;;;;;;8.60;5.40;;;;;;;;;;5036748;28;20989;-71
2024/01/05 09:51:00;;;;;;;8.63;6.20;;;;;;;;;;5032991;28;20541;-70
2024/01/05 09:53:26;;;;;;;9.10;6.18;;;;;;;;;;5033636;28;20525;-70
2024/01/05 09:55:53;;;;;;;8.45;5.90;;;;;;;;;;5034987;28;20372;-70
2024/01/05 09:58:19;;;;;;;9.68;6.40;;;;;;;;;;5034213;28;20108;-70
2024/01/05 10:00:49;;;;;;;9.60;6.47;;;;;;;;;;5032552;28;20109;-70
2024/01/05 10:03:23;;;;;;;10.27;5.53;;;;;;;;;;5033752;28;20877;-70
2024/01/05 10:05:53;;;;;;;10.70;5.60;;;;;;;;;;5035525;28;20048;-70
2024/01/05 10:08:21;;;;;;;9.95;6.05;;;;;;;;;;5032899;28;20112;-70
2024/01/05 10:10:49;;;;;;;10.70;5.40;;;;;;;;;;5031995;28;20159;-70
2024/01/05 10:13:16;;;;;;;10.98;5.97;;;;;;;;;;5034898;28;20651;-70
2024/01/05 10:16:04;;;;;;;8.32;5.53;;;;;;;;;;5033859;28;20051;-70
2024/01/05 10:18:31;;;;;;;7.78;5.53;;;;;;;;;;5034760;28;20428;-70
2024/01/05 10:21:08;;;;;;;8.98;5.72;;;;;;;;;;5035112;28;20106;-69
2024/01/05 10:23:42;;;;;;;6.95;4.93;;;;;;;;;;5049733;28;20037;-71
2024/01/05 10:26:15;;;;;;;6.70;4.93;;;;;;;;;;5033838;28;20271;-70
2024/01/05 10:28:41;;;;;;;7.85;4.93;;;;;;;;;;5033995;28;20045;-70
2024/01/05 10:31:14;;;;;;;7.93;5.57;;;;;;;;;;5031030;28;20784;-71
2024/01/05 10:33:54;;;;;;;9.10;6.28;;;;;;;;;;5033693;28;20099;-69
2024/01/05 10:36:20;;;;;;;6.90;5.25;;;;;;;;;;5031851;28;20053;-69
2024/01/05 10:38:47;;;;;;;8.82;5.30;;;;;;;;;;5031140;28;20141;-71
2024/01/05 10:41:13;;;;;;;6.97;5.28;;;;;;;;;;5031913;28;20040;-69
2024/01/05 10:43:41;;;;;;;7.88;5.32;;;;;;;;;;5032288;28;20037;-69
2024/01/05 10:46:08;;;;;;;6.78;4.55;;;;;;;;;;5027941;28;20161;-69
2024/01/05 10:48:35;;;;;;;7.30;4.72;;;;;;;;;;5029055;28;20104;-70
2024/01/05 10:51:02;;;;;;;6.40;5.10;;;;;;;;;;5027833;28;20270;-69
2024/01/05 10:53:29;;;;;;;11.07;6.65;;;;;;;;;;5029422;28;20449;-70
2024/01/05 10:55:57;;;;;;;7.57;5.32;;;;;;;;;;5032798;28;20036;-70
2024/01/05 10:58:23;;;;;;;7.43;4.93;;;;;;;;;;5013171;28;20048;-70
2024/01/05 11:00:50;;;;;;;7.20;4.95;;;;;;;;;;5032275;28;20543;-70
2024/01/05 11:03:19;;;;;;;7.43;5.07;;;;;;;;;;5049189;28;20123;-70
2024/01/05 11:05:46;;;;;;;7.60;5.03;;;;;;;;;;5033932;28;20041;-69
2024/01/05 11:08:31;;;;;;;7.70;4.85;;;;;;;;;;5033830;28;20535;-70
2024/01/05 11:11:12;;;;;;;6.82;4.93;;;;;;;;;;5047623;28;20578;-70
2024/01/05 11:13:51;;;;;;;7.38;4.80;;;;;;;;;;5046862;28;20056;-70
2024/01/05 11:16:36;;;;;;;7.25;5.32;;;;;;;;;;5030218;28;20144;-70
2024/01/05 11:19:28;;;;;;;7.38;4.82;;;;;;;;;;5029858;28;20040;-70
2024/01/05 11:21:57;;;;;;;6.67;4.50;;;;;;;;;;5030018;28;20044;-69
2024/01/05 11:24:24;;;;;;;6.18;4.32;;;;;;;;;;5014683;28;20314;-70
2024/01/05 11:26:50;;;;;;;6.60;4.45;;;;;;;;;;5033562;28;20531;-69
2024/01/05 11:29:35;;;;;;;9.65;5.03;;;;;;;;;;5033064;28;20558;-70
2024/01/05 11:32:02;;;;;;;5.53;4.35;;;;;;;;;;5030200;28;20045;-70
2024/01/05 11:34:32;;;;;;;6.95;4.93;;;;;;;;;;5015132;28;20041;-70
2024/01/05 11:36:59;;;;;;;6.53;4.57;;;;;;;;;;5031727;28;20242;-70
2024/01/05 11:39:39;;;;;;;6.32;4.60;;;;;;;;;;5030295;28;20542;-70
2024/01/05 11:42:05;;;;;;;5.60;4.22;;;;;;;;;;5030460;28;20148;-70
2024/01/05 11:44:33;;;;;;;5.82;4.57;;;;;;;;;;5030619;28;20041;-70
2024/01/05 11:47:01;;;;;;;6.20;4.05;;;;;;;;;;5031394;28;20442;-70
2024/01/05 11:49:41;;;;;;;6.97;4.95;;;;;;;;;;5030577;28;20108;-70
2024/01/05 11:52:08;;;;;;;7.40;4.55;;;;;;;;;;5029629;28;20153;-70
2024/01/05 11:54:35;;;;;;;4.70;3.70;;;;;;;;;;5032053;28;20041;-70
2024/01/05 11:57:04;;;;;;;5.85;4.25;;;;;;;;;;5012825;28;20225;-70
2024/01/05 11:59:30;;;;;;;7.63;4.10;;;;;;;;;;5029974;28;20527;-69
2024/01/05 12:01:56;;;;;;;6.07;4.03;;;;;;;;;;5027122;28;20623;-69
2024/01/05 12:04:22;;;;;;;7.28;4.38;;;;;;;;;;5030800;28;20199;-68
2024/01/05 12:06:54;;;;;;;5.35;3.63;;;;;;;;;;5028695;28;20128;-69
2024/01/05 12:09:21;;;;;;;8.50;4.28;;;;;;;;;;5032574;28;20535;-69
2024/01/05 12:11:48;;;;;;;5.50;4.05;;;;;;;;;;5030305;28;20067;-69
2024/01/05 12:14:26;;;;;;;8.75;5.95;;;;;;;;;;5032168;28;20125;-70
2024/01/05 12:16:53;;;;;;;7.53;4.40;;;;;;;;;;5032065;28;20590;-70
2024/01/05 12:19:20;;;;;;;7.55;4.38;;;;;;;;;;5032917;28;20573;-70
2024/01/05 12:21:50;;;;;;;13.98;5.30;;;;;;;;;;5033578;28;20559;-70
2024/01/05 12:24:16;;;;;;;6.85;4.32;;;;;;;;;;5034286;28;20040;-70
2024/01/05 12:26:42;;;;;;;6.00;4.55;;;;;;;;;;5030821;28;20950;-70
2024/01/05 12:29:08;;;;;;;6.32;4.20;;;;;;;;;;5047115;28;20137;-70
2024/01/05 12:31:36;;;;;;;6.25;4.15;;;;;;;;;;5029562;28;20149;-69
2024/01/05 12:34:02;;;;;;;9.32;5.05;;;;;;;;;;5028570;28;20044;-69
2024/01/05 12:36:31;;;;;;;7.63;4.75;;;;;;;;;;5045599;28;20041;-69
2024/01/05 12:39:10;;;;;;;6.90;4.43;;;;;;;;;;5030636;28;20055;-69
2024/01/05 12:41:39;;;;;;;6.18;4.05;;;;;;;;;;5030979;28;20039;-69
2024/01/05 12:44:10;;;;;;;7.07;4.63;;;;;;;;;;5032650;28;20055;-69
2024/01/05 12:46:46;;;;;;;8.98;4.88;;;;;;;;;;5032424;28;20361;-69
2024/01/05 12:49:22;;;;;;;8.63;5.63;;;;;;;;;;5048206;28;20666;-69
2024/01/05 12:51:48;;;;;;;6.20;4.10;;;;;;;;;;5034376;28;20253;-69
2024/01/05 12:54:14;;;;;;;6.47;4.03;;;;;;;;;;5035337;28;20049;-70
2024/01/05 12:56:48;;;;;;;6.75;4.65;;;;;;;;;;5033709;28;20363;-70
2024/01/05 12:59:26;;;;;;;6.30;4.50;;;;;;;;;;5035508;28;20490;-70
2024/01/05 13:02:02;;;;;;;6.35;3.70;;;;;;;;;;5016683;28;20694;-70
2024/01/05 13:04:35;;;;;;;7.07;4.63;;;;;;;;;;5032483;28;20220;-70
2024/01/05 13:07:03;;;;;;;;;;;;;;;;;;5035601;28;20202;-69
2024/01/05 13:09:32;;;;;;;5.90;3.65;;;;;;;;;;5032338;28;19958;-70
2024/01/05 13:11:58;;;;;;;7.30;4.20;;;;;;;;;;5050743;28;20203;-69
2024/01/05 13:14:25;;;;;;;7.75;4.53;;;;;;;;;;5033335;28;20205;-69
2024/01/05 13:16:51;;;;;;;5.85;4.63;;;;;;;;;;4999393;28;20263;-69
2024/01/05 13:19:17;;;;;;;5.80;4.00;;;;;;;;;;5033637;28;20123;-70
2024/01/05 13:21:43;;;;;;;7.15;4.55;;;;;;;;;;5032157;28;20048;-69
2024/01/05 13:24:09;;;;;;;6.00;4.10;;;;;;;;;;4999899;28;20581;-69
2024/01/05 13:26:36;;;;;;;8.90;5.13;;;;;;;;;;5034148;28;20345;-69
2024/01/05 13:29:02;;;;;;;6.07;4.20;;;;;;;;;;5033168;28;20174;-68
2024/01/05 13:31:28;;;;;;;6.72;4.90;;;;;;;;;;5034534;28;20195;-70
2024/01/05 13:33:55;;;;;;;6.53;4.65;;;;;;;;;;5035963;28;20484;-69
2024/01/05 13:36:21;;;;;;;5.82;4.22;;;;;;;;;;5038492;28;20044;-69
2024/01/05 13:38:48;;;;;;;5.25;4.22;;;;;;;;;;5036982;28;20574;-69
2024/01/05 13:41:14;;;;;;;6.38;4.70;;;;;;;;;;5036566;28;20050;-69
2024/01/05 13:43:40;;;;;;;6.50;4.57;;;;;;;;;;5032668;28;20513;-69
2024/01/05 13:46:07;;;;;;;7.25;4.80;;;;;;;;;;5037294;28;20075;-69
2024/01/05 13:48:33;;;;;;;16.10;5.15;;;;;;;;;;5037113;28;20232;-70
2024/01/05 13:50:59;;;;;;;6.60;5.18;;;;;;;;;;5037577;28;20055;-70
2024/01/05 13:53:25;;;;;;;6.85;4.57;;;;;;;;;;5051791;28;20155;-69
2024/01/05 13:55:51;;;;;;;6.70;4.22;;;;;;;;;;5037933;28;20127;-69
2024/01/05 13:58:17;;;;;;;8.00;4.38;;;;;;;;;;5036748;28;20272;-69
2024/01/05 14:00:47;;;;;;;6.68;5.10;;;;;;;;;;5033954;28;20096;-69
2024/01/05 14:03:14;;;;;;;6.55;4.43;;;;;;;;;;5035796;28;20373;-69
2024/01/05 14:05:40;;;;;;;8.43;5.00;;;;;;;;;;5034229;28;20229;-69
2024/01/05 14:08:06;;;;;;;6.60;4.70;;;;;;;;;;5036102;28;20502;-69
2024/01/05 14:10:32;;;;;;;6.63;4.35;;;;;;;;;;5034835;28;20202;-69
2024/01/05 14:12:58;;;;;;;6.80;4.63;;;;;;;;;;5037529;28;20560;-69
2024/01/05 14:15:24;;;;;;;6.38;4.57;;;;;;;;;;5036527;28;20041;-69
2024/01/05 14:17:51;;;;;;;7.72;4.80;;;;;;;;;;5019700;28;20523;-70
2024/01/05 14:20:17;;;;;;;7.15;4.25;;;;;;;;;;5018687;28;20273;-70
2024/01/05 14:22:43;;;;;;;6.65;4.60;;;;;;;;;;5036974;28;20045;-69
2024/01/05 14:25:09;;;;;;;7.57;4.78;;;;;;;;;;5035277;28;20037;-69
2024/01/05 14:27:35;;;;;;;6.55;5.03;;;;;;;;;;5032885;28;20116;-69
2024/01/05 14:30:03;;;;;;;8.02;5.18;;;;;;;;;;5033565;28;20420;-70
2024/01/05 14:32:29;;;;;;;6.45;4.65;;;;;;;;;;5029561;28;20398;-69
2024/01/05 14:34:56;;;;;;;6.72;4.75;;;;;;;;;;5028141;28;20166;-69
2024/01/05 14:37:22;;;;;;;5.97;4.07;;;;;;;;;;5030886;28;20434;-69